Archival Weather

Norman Y Mineta San Jose Intl

San Jose, California (KSJC)

Report from: Tuesday, February 13, 2024 3:28 AM PST
Current time: Friday, June 21, 2024 1:53 AM PDT

Current weather – Weather history – Daily summaries
Weather forecast

Temperature8.3°C (46.9°F)
Dew point5.0°C (41.0°F)
Winds Calm
Visibility10 mi. (16.1 km)
Clouds Scattered clouds 1,600 ft. (488 m)
Altimeter30.05 in.Hg (1018 mB)
Relative humidity80 %
Density altitude-825 ft. (-251 m)
Remarks Fully automated report
Automated weather observing station with precipitation discriminator
Flight conditions Visual Meteorological Conditions
Raw dataKSJC 131128Z AUTO 00000KT 10SM SCT016 08/05 A3005 RMK AO2 T00830050
An error has occurred. This application may no longer respond until reloaded. Reload 🗙